sensor_id;sensor_type;location;lat;lon;timestamp;P1;durP1;ratioP1;P2;durP2;ratioP2
57842;SDS011;43673;51.058;3.734;2023-04-15T07:16:50;21.50;;;10.50;;
57842;SDS011;43673;51.058;3.734;2023-04-15T07:19:22;17.30;;;10.95;;
57842;SDS011;43673;51.058;3.734;2023-04-15T07:21:48;12.95;;;10.13;;
57842;SDS011;43673;51.058;3.734;2023-04-15T07:24:13;17.80;;;10.65;;
57842;SDS011;43673;51.058;3.734;2023-04-15T07:26:42;21.88;;;11.52;;
57842;SDS011;43673;51.058;3.734;2023-04-15T07:29:10;18.50;;;11.68;;
57842;SDS011;43673;51.058;3.734;2023-04-15T07:31:42;20.98;;;13.02;;
57842;SDS011;43673;51.058;3.734;2023-04-15T07:34:22;21.38;;;13.57;;
57842;SDS011;43673;51.058;3.734;2023-04-15T08:07:59;36.05;;;21.52;;
57842;SDS011;43673;51.058;3.734;2023-04-15T08:16:15;49.05;;;27.30;;
57842;SDS011;43673;51.058;3.734;2023-04-15T08:18:45;73.47;;;36.97;;
57842;SDS011;43673;51.058;3.734;2023-04-15T08:21:12;75.03;;;37.42;;
57842;SDS011;43673;51.058;3.734;2023-04-15T08:23:39;82.43;;;39.95;;
57842;SDS011;43673;51.058;3.734;2023-04-15T08:26:05;75.05;;;36.47;;
57842;SDS011;43673;51.058;3.734;2023-04-15T08:28:31;61.22;;;32.05;;
57842;SDS011;43673;51.058;3.734;2023-04-15T08:30:57;48.13;;;27.98;;
57842;SDS011;43673;51.058;3.734;2023-04-15T08:33:23;56.17;;;30.25;;
57842;SDS011;43673;51.058;3.734;2023-04-15T08:35:49;59.58;;;32.20;;
57842;SDS011;43673;51.058;3.734;2023-04-15T08:38:15;61.90;;;34.22;;
57842;SDS011;43673;51.058;3.734;2023-04-15T08:40:42;31.70;;;19.80;;
57842;SDS011;43673;51.058;3.734;2023-04-15T08:43:10;51.63;;;27.63;;
57842;SDS011;43673;51.058;3.734;2023-04-15T08:45:39;53.97;;;29.00;;
57842;SDS011;43673;51.058;3.734;2023-04-15T08:48:06;49.38;;;24.20;;
57842;SDS011;43673;51.058;3.734;2023-04-15T08:50:34;35.38;;;21.85;;
57842;SDS011;43673;51.058;3.734;2023-04-15T08:53:00;36.50;;;23.17;;
57842;SDS011;43673;51.058;3.734;2023-04-15T08:55:29;37.72;;;22.25;;
57842;SDS011;43673;51.058;3.734;2023-04-15T08:58:00;33.95;;;20.08;;
57842;SDS011;43673;51.058;3.734;2023-04-15T09:00:30;37.20;;;22.30;;
57842;SDS011;43673;51.058;3.734;2023-04-15T09:02:56;28.63;;;17.90;;
57842;SDS011;43673;51.058;3.734;2023-04-15T09:05:23;38.95;;;22.10;;
57842;SDS011;43673;51.058;3.734;2023-04-15T09:07:50;18.95;;;12.32;;
57842;SDS011;43673;51.058;3.734;2023-04-15T09:10:15;16.15;;;11.70;;
57842;SDS011;43673;51.058;3.734;2023-04-15T09:12:41;19.65;;;12.32;;
57842;SDS011;43673;51.058;3.734;2023-04-15T09:28:03;15.02;;;11.75;;
57842;SDS011;43673;51.058;3.734;2023-04-15T09:30:29;15.55;;;12.25;;
57842;SDS011;43673;51.058;3.734;2023-04-15T09:33:16;38.03;;;23.15;;
57842;SDS011;43673;51.058;3.734;2023-04-15T09:35:41;46.22;;;25.27;;
57842;SDS011;43673;51.058;3.734;2023-04-15T09:38:19;40.30;;;23.15;;
57842;SDS011;43673;51.058;3.734;2023-04-15T09:40:45;37.72;;;23.27;;
57842;SDS011;43673;51.058;3.734;2023-04-15T09:43:11;28.92;;;19.20;;
57842;SDS011;43673;51.058;3.734;2023-04-15T09:45:37;16.75;;;12.55;;
57842;SDS011;43673;51.058;3.734;2023-04-15T09:48:22;18.15;;;12.10;;
57842;SDS011;43673;51.058;3.734;2023-04-15T09:50:51;15.13;;;12.55;;
57842;SDS011;43673;51.058;3.734;2023-04-15T09:53:21;25.73;;;17.27;;
57842;SDS011;43673;51.058;3.734;2023-04-15T09:55:49;50.10;;;28.85;;
57842;SDS011;43673;51.058;3.734;2023-04-15T09:58:20;43.80;;;26.20;;
57842;SDS011;43673;51.058;3.734;2023-04-15T10:00:47;51.95;;;26.58;;
57842;SDS011;43673;51.058;3.734;2023-04-15T10:03:18;35.38;;;20.90;;
57842;SDS011;43673;51.058;3.734;2023-04-15T10:05:46;29.55;;;18.70;;
57842;SDS011;43673;51.058;3.734;2023-04-15T10:08:14;26.42;;;17.48;;
57842;SDS011;43673;51.058;3.734;2023-04-15T10:10:44;26.58;;;17.80;;
57842;SDS011;43673;51.058;3.734;2023-04-15T10:13:12;29.23;;;20.23;;
57842;SDS011;43673;51.058;3.734;2023-04-15T10:15:42;32.70;;;21.83;;
57842;SDS011;43673;51.058;3.734;2023-04-15T10:18:10;25.27;;;17.47;;
57842;SDS011;43673;51.058;3.734;2023-04-15T10:20:37;20.13;;;15.77;;
57842;SDS011;43673;51.058;3.734;2023-04-15T10:23:04;15.88;;;13.07;;
57842;SDS011;43673;51.058;3.734;2023-04-15T10:25:33;17.48;;;13.15;;
57842;SDS011;43673;51.058;3.734;2023-04-15T10:30:26;16.65;;;11.13;;
57842;SDS011;43673;51.058;3.734;2023-04-15T10:32:53;15.82;;;10.07;;
57842;SDS011;43673;51.058;3.734;2023-04-15T10:35:19;10.80;;;8.95;;
57842;SDS011;43673;51.058;3.734;2023-04-15T10:37:46;10.10;;;6.88;;
57842;SDS011;43673;51.058;3.734;2023-04-15T10:42:55;11.40;;;7.70;;
57842;SDS011;43673;51.058;3.734;2023-04-15T10:45:30;9.32;;;7.68;;
57842;SDS011;43673;51.058;3.734;2023-04-15T10:48:02;10.52;;;7.05;;
57842;SDS011;43673;51.058;3.734;2023-04-15T10:50:32;8.18;;;6.25;;
57842;SDS011;43673;51.058;3.734;2023-04-15T10:52:58;9.97;;;6.80;;
57842;SDS011;43673;51.058;3.734;2023-04-15T10:55:31;7.13;;;5.75;;
57842;SDS011;43673;51.058;3.734;2023-04-15T10:58:01;7.60;;;4.95;;
57842;SDS011;43673;51.058;3.734;2023-04-15T11:00:28;8.85;;;5.80;;
57842;SDS011;43673;51.058;3.734;2023-04-15T11:02:58;6.53;;;5.80;;
57842;SDS011;43673;51.058;3.734;2023-04-15T11:08:06;8.13;;;5.60;;
57842;SDS011;43673;51.058;3.734;2023-04-15T11:13:02;7.47;;;4.85;;
57842;SDS011;43673;51.058;3.734;2023-04-15T11:15:39;8.38;;;3.92;;
57842;SDS011;43673;51.058;3.734;2023-04-15T11:18:19;5.32;;;4.82;;
57842;SDS011;43673;51.058;3.734;2023-04-15T12:49:02;10.13;;;6.90;;
57842;SDS011;43673;51.058;3.734;2023-04-15T13:57:25;14.45;;;9.48;;
57842;SDS011;43673;51.058;3.734;2023-04-15T14:02:16;11.77;;;8.27;;
57842;SDS011;43673;51.058;3.734;2023-04-15T14:04:42;14.80;;;9.75;;
57842;SDS011;43673;51.058;3.734;2023-04-15T14:10:30;12.25;;;8.70;;
57842;SDS011;43673;51.058;3.734;2023-04-15T14:12:56;12.15;;;9.30;;
57842;SDS011;43673;51.058;3.734;2023-04-15T14:15:22;12.82;;;8.20;;
57842;SDS011;43673;51.058;3.734;2023-04-15T14:17:47;13.18;;;9.10;;
57842;SDS011;43673;51.058;3.734;2023-04-15T14:23:19;14.32;;;9.13;;
57842;SDS011;43673;51.058;3.734;2023-04-15T14:25:45;10.98;;;8.85;;
57842;SDS011;43673;51.058;3.734;2023-04-15T14:28:11;11.20;;;8.15;;
57842;SDS011;43673;51.058;3.734;2023-04-15T14:30:36;14.15;;;8.52;;
57842;SDS011;43673;51.058;3.734;2023-04-15T14:33:02;12.25;;;9.15;;
57842;SDS011;43673;51.058;3.734;2023-04-15T14:35:31;14.00;;;8.82;;
